Burgos, España

1:25 AM CEST en Septiembre 02, 2014 (GMT +0200)
Foronda | Change Station
CLOSE
Current Station
Aeropuerto
Location: Vitoria,
Altura: 1673 ft
Estaciones meteorológicas cercanas

Alt 1673 ft 42.88 °N, 2.72 °W | Updated 55 minutes ago

Clear
Despejado
61 ° F
Sensación térmica 61 ° F
N
0
Viento Variable Viento desde Norte

Hoy
Alta -- | Baja -- ° F
--% Posibilidad de precipitaciones
Ayer
Alta -- | Baja -- ° F
Precip. -- pul
7:40 AM 8:47 PM
Creciente, 45% visible
Presión 30.09 pul
Visibilidad -9999.0 Millas
Nubes
Punto de rocío 57 ° F
Humedad 88%
Precipitaciones 0.00 pul
Espesor de la nieve No disponible.
UV No disponible.
Polen No disponible.
Calidad del aire No disponible.
Flu Activity No disponible.
METAR LEVT 012230Z 00000KT CAVOK 16/14 Q1019

More Conditions Fewer Conditions

Presión 30.09 pul
Visibilidad -9999.0 Millas
Nubes
Punto de rocío 57 ° F
Humedad 88%
Precipitaciones 0.00 pul
Espesor de la nieve No disponible.
UV No disponible.
Polen No disponible.
Calidad del aire No disponible.
Flu Activity No disponible.
METAR LEVT 012230Z 00000KT CAVOK 16/14 Q1019

More Conditions Fewer Conditions

10-Day Weather Forecast

Almanac

Astronomía

Sep. 02, 2014 Salida Puesta
Hora real 7:40 AM CEST 8:47 PM CEST
Crepúsculo civil 7:11 AM CEST 9:15 PM CEST
Crepúsculo náutico 6:37 AM CEST 9:50 PM CEST
Crepúsculo astronómico 6:00 AM CEST 10:26 PM CEST
Luna 3:19 PM CEST (9/2) 12:30 AM CEST (9/2)
Horas de luz 14h 04m
Horas de luz
13h 06m
Tomorrow will be 2m 45s shorter.
Creciente, 45% of the Moon is Illuminated
Sep 1
Creciente
Sep 2
Cuarto creciente
Sep 8
Luna llena
Sep 15
Cuarto menguante
Sep 24
Nueva

Extremos de ayer

Máximos del país Bajas del país

Community

WunderPhotos

Upload Photos

1,749,430 ¡fotos cargadas!

Nearby

Calidad del aire

Not available.

Grosos de nieve

Not available.

Actividad de terremotos

Ciudad Distance Mag. Tiempo y dato
No hay informes recientes de la actividad sísmica.
Magnitud mínima muestra es 2,5.

Temperaturas de aguas costeras

Lugar Temperatura
Sin partes meteorológicos de las estaciones

Estaciones meteorológicas cercanas